createdAt,value
2022-07-31T00:04:24.097Z,98395.97
2022-07-31T00:09:52.449Z,98403.31
2022-07-31T00:14:48.594Z,98393.03
2022-07-31T00:19:50.406Z,98411.81
2022-07-31T00:24:52.201Z,98407.19
2022-07-31T00:29:54.016Z,98408.78
2022-07-31T00:34:55.843Z,98404.91
2022-07-31T00:39:58.753Z,98407.28
2022-07-31T00:45:01.124Z,98402.63
2022-07-31T00:50:04.922Z,98398.72
2022-07-31T00:55:07.695Z,98402.66
2022-07-31T01:00:10.465Z,98396.38
2022-07-31T01:05:12.320Z,98396.34
2022-07-31T01:10:36.558Z,98392.72
2022-07-31T01:15:39.922Z,98397.00
2022-07-31T01:20:45.622Z,98401.75
2022-07-31T01:25:50.481Z,98407.22
2022-07-31T01:31:28.346Z,98403.72
2022-07-31T01:36:36.923Z,98399.78
2022-07-31T01:41:46.341Z,98399.03
2022-07-31T01:46:49.934Z,98400.22
2022-07-31T01:51:53.258Z,98399.81
2022-07-31T01:56:59.642Z,98394.72
2022-07-31T02:02:04.850Z,98388.09
2022-07-31T02:07:08.443Z,98390.19
2022-07-31T02:12:12.668Z,98387.94
2022-07-31T02:17:22.261Z,98380.91
2022-07-31T02:23:01.598Z,98376.97
2022-07-31T02:28:08.137Z,98371.88
2022-07-31T02:33:14.008Z,98370.72
2022-07-31T02:38:23.373Z,98364.84
2022-07-31T02:43:28.722Z,98368.78
2022-07-31T02:48:32.798Z,98368.44
2022-07-31T02:53:39.427Z,98371.22
2022-07-31T02:58:44.326Z,98357.09
2022-07-31T03:03:59.322Z,98355.09
2022-07-31T03:09:03.411Z,98342.16
2022-07-31T03:14:08.611Z,98342.88
2022-07-31T03:19:11.410Z,98344.03
2022-07-31T03:24:13.614Z,98343.28
2022-07-31T03:29:41.198Z,98339.34
2022-07-31T03:34:37.871Z,98330.81
2022-07-31T03:39:40.207Z,98335.97
2022-07-31T03:44:46.560Z,98330.84
2022-07-31T03:49:49.307Z,98330.41
2022-07-31T03:54:51.606Z,98334.34
2022-07-31T03:59:57.775Z,98334.75
2022-07-31T04:05:00.285Z,98333.16
2022-07-31T04:10:02.962Z,98337.06
2022-07-31T04:15:06.311Z,98339.41
2022-07-31T04:20:09.491Z,98347.63
2022-07-31T04:25:11.350Z,98353.88
2022-07-31T04:30:31.969Z,98358.84
2022-07-31T04:35:35.323Z,98353.25
2022-07-31T04:40:37.745Z,98355.53
2022-07-31T04:45:39.607Z,98353.88
2022-07-31T04:50:42.522Z,98358.53
2022-07-31T04:56:04.937Z,98361.97
2022-07-31T05:01:07.052Z,98363.88
2022-07-31T05:06:12.821Z,98364.19
2022-07-31T05:11:23.999Z,98379.03
2022-07-31T05:16:27.509Z,98368.28
2022-07-31T05:21:33.112Z,98377.63
2022-07-31T05:27:00.400Z,98375.09
2022-07-31T05:32:02.748Z,98368.69
2022-07-31T05:37:07.462Z,98379.59
2022-07-31T05:42:12.200Z,98383.75
2022-07-31T05:47:40.148Z,98388.31
2022-07-31T05:52:42.838Z,98385.22
2022-07-31T05:58:20.468Z,98377.06
2022-07-31T06:03:23.861Z,98373.72
2022-07-31T06:08:34.895Z,98384.38
2022-07-31T06:13:36.982Z,98383.53
2022-07-31T06:24:07.741Z,98370.41
2022-07-31T06:29:19.285Z,98371.81
2022-07-31T06:34:42.136Z,98361.44
2022-07-31T06:39:56.064Z,98366.25
2022-07-31T06:45:12.052Z,98360.44
2022-07-31T06:50:45.928Z,98364.78
2022-07-31T06:56:11.234Z,98360.25
2022-07-31T07:01:16.908Z,98359.44
2022-07-31T07:06:21.046Z,98362.72
2022-07-31T07:11:24.248Z,98373.19
2022-07-31T07:16:26.800Z,98375.38
2022-07-31T07:21:29.121Z,98372.41
2022-07-31T07:26:31.450Z,98365.53
2022-07-31T07:31:34.960Z,98373.06
2022-07-31T07:36:37.034Z,98375.38
2022-07-31T07:41:44.716Z,98366.03
2022-07-31T07:46:47.184Z,98368.09
2022-07-31T07:51:58.801Z,98352.50
2022-07-31T07:57:09.734Z,98351.34
2022-07-31T08:02:35.279Z,98349.31
2022-07-31T08:07:42.043Z,98327.44
2022-07-31T08:13:07.995Z,98339.63
2022-07-31T08:18:36.293Z,98332.78
2022-07-31T08:23:38.451Z,98335.81
2022-07-31T08:28:50.394Z,98324.41
2022-07-31T08:33:55.165Z,98319.66
2022-07-31T08:38:57.543Z,98318.94
2022-07-31T08:44:17.824Z,98320.97
2022-07-31T08:49:31.567Z,98319.56
2022-07-31T08:54:35.763Z,98319.88
2022-07-31T08:59:41.928Z,98313.97
2022-07-31T09:04:44.052Z,98325.44
2022-07-31T09:09:51.866Z,98318.75
2022-07-31T09:14:55.382Z,98312.44
2022-07-31T09:19:57.399Z,98308.03
2022-07-31T09:25:12.929Z,98297.00
2022-07-31T09:30:16.220Z,98289.72
2022-07-31T09:35:47.225Z,98295.69
2022-07-31T09:40:55.483Z,98296.69
2022-07-31T09:46:06.604Z,98283.97
2022-07-31T09:51:08.814Z,98288.56
2022-07-31T09:56:12.738Z,98289.00
2022-07-31T10:01:15.125Z,98287.03
2022-07-31T10:06:20.455Z,98274.06
2022-07-31T10:11:24.911Z,98270.66
2022-07-31T10:16:44.192Z,98271.94
2022-07-31T10:22:10.049Z,98269.63
2022-07-31T10:27:14.525Z,98269.06
2022-07-31T10:32:17.563Z,98262.28
2022-07-31T10:38:01.502Z,98265.03
2022-07-31T10:43:29.476Z,98256.38
2022-07-31T10:48:53.786Z,98261.59
2022-07-31T10:54:16.052Z,98282.91
2022-07-31T10:59:45.615Z,98264.84
2022-07-31T11:04:50.623Z,98261.81
2022-07-31T11:10:21.952Z,98256.09
2022-07-31T11:15:34.041Z,98244.91
2022-07-31T11:21:13.683Z,98249.75
2022-07-31T11:26:32.910Z,98240.41
2022-07-31T11:31:42.481Z,98255.81
2022-07-31T11:36:49.271Z,98243.25
2022-07-31T11:41:54.493Z,98246.16
2022-07-31T11:46:56.680Z,98249.34
2022-07-31T11:52:04.089Z,98235.22
2022-07-31T11:57:07.217Z,98233.19
2022-07-31T12:02:11.589Z,98229.38
2022-07-31T12:07:14.290Z,98234.34
2022-07-31T12:12:19.267Z,98215.03
2022-07-31T12:17:22.680Z,98204.53
2022-07-31T12:22:25.655Z,98199.84
2022-07-31T12:27:28.268Z,98215.25
2022-07-31T12:32:30.343Z,98204.66
2022-07-31T12:37:43.963Z,98199.94
2022-07-31T12:42:46.454Z,98206.09
2022-07-31T12:47:53.937Z,98191.34
2022-07-31T12:53:00.851Z,98185.56
2022-07-31T12:58:03.207Z,98183.97
2022-07-31T13:03:05.883Z,98183.72
2022-07-31T13:08:09.020Z,98167.66
2022-07-31T13:13:11.170Z,98159.69
2022-07-31T13:18:13.452Z,98156.00
2022-07-31T13:23:15.348Z,98156.34
2022-07-31T13:28:17.628Z,98157.44
2022-07-31T13:33:19.722Z,98156.25
2022-07-31T13:38:21.920Z,98142.91
2022-07-31T13:43:24.057Z,98134.81
2022-07-31T13:48:26.333Z,98136.59
2022-07-31T13:53:28.333Z,98125.41
2022-07-31T13:58:30.228Z,98124.88
2022-07-31T14:03:32.351Z,98131.88
2022-07-31T14:08:49.651Z,98135.00
2022-07-31T14:13:53.178Z,98126.53
2022-07-31T14:18:55.415Z,98130.88
2022-07-31T14:23:57.589Z,98133.94
2022-07-31T14:29:01.384Z,98126.81
2022-07-31T14:34:05.215Z,98135.78
2022-07-31T14:39:07.605Z,98130.75
2022-07-31T14:44:09.784Z,98134.81
2022-07-31T14:49:12.950Z,98122.19
2022-07-31T14:54:15.093Z,98123.91
2022-07-31T14:59:17.141Z,98106.56
2022-07-31T15:04:19.172Z,98112.72
2022-07-31T15:09:23.213Z,98106.41
2022-07-31T15:14:25.132Z,98116.06
2022-07-31T15:19:26.978Z,98112.84
2022-07-31T15:24:30.066Z,98112.34
2022-07-31T15:30:04.709Z,98113.56
2022-07-31T15:34:54.984Z,98109.22
2022-07-31T15:40:02.347Z,98103.22
2022-07-31T15:45:09.845Z,98108.00
2022-07-31T15:50:14.576Z,98096.50
2022-07-31T15:55:17.612Z,98096.91
2022-07-31T16:00:19.544Z,98101.91
2022-07-31T16:05:36.648Z,98098.63
2022-07-31T16:10:39.296Z,98094.66
2022-07-31T16:15:41.674Z,98089.38
2022-07-31T16:20:43.695Z,98081.09
2022-07-31T16:25:45.881Z,98086.69
2022-07-31T16:30:47.849Z,98079.25
2022-07-31T16:35:49.849Z,98075.41
2022-07-31T16:40:53.550Z,98079.19
2022-07-31T16:45:56.273Z,98071.69
2022-07-31T16:50:59.214Z,98067.91
2022-07-31T16:56:02.004Z,98069.28
2022-07-31T17:01:53.159Z,98056.31
2022-07-31T17:06:36.057Z,98069.00
2022-07-31T17:11:40.376Z,98060.44
2022-07-31T17:16:47.040Z,98057.88
2022-07-31T17:21:52.648Z,98067.38
2022-07-31T17:26:55.370Z,98068.94
2022-07-31T17:31:57.706Z,98068.97
2022-07-31T17:36:59.637Z,98078.19
2022-07-31T17:42:02.722Z,98073.38
2022-07-31T17:47:06.123Z,98063.09
2022-07-31T17:52:08.424Z,98069.34
2022-07-31T17:57:10.528Z,98076.63
2022-07-31T18:02:13.058Z,98079.34
2022-07-31T18:07:18.134Z,98077.19
2022-07-31T18:12:19.981Z,98082.72
2022-07-31T18:17:22.451Z,98079.47
2022-07-31T18:22:24.327Z,98080.16
2022-07-31T18:27:26.433Z,98075.44
2022-07-31T18:32:31.810Z,98079.84
2022-07-31T18:37:34.055Z,98089.47
2022-07-31T18:42:36.135Z,98089.47
2022-07-31T18:47:38.430Z,98074.47
2022-07-31T18:52:40.383Z,98090.13
2022-07-31T18:57:42.469Z,98085.41
2022-07-31T19:02:44.495Z,98088.59
2022-07-31T19:07:46.488Z,98093.88
2022-07-31T19:12:51.045Z,98095.88
2022-07-31T19:17:58.351Z,98093.44
2022-07-31T19:23:04.273Z,98106.06
2022-07-31T19:28:07.056Z,98102.31
2022-07-31T19:33:14.063Z,98115.31
2022-07-31T19:38:21.606Z,98110.69
2022-07-31T19:43:23.975Z,98107.34
2022-07-31T19:48:25.948Z,98114.56
2022-07-31T19:53:27.900Z,98123.31
2022-07-31T19:58:29.725Z,98123.00
2022-07-31T20:03:31.963Z,98127.03
2022-07-31T20:08:34.239Z,98137.81
2022-07-31T20:13:38.700Z,98113.69
2022-07-31T20:18:40.755Z,98110.53
2022-07-31T20:23:42.881Z,98102.03
2022-07-31T20:28:44.816Z,98093.53
2022-07-31T20:33:57.094Z,98099.22
2022-07-31T20:38:59.920Z,98085.94
2022-07-31T20:44:01.832Z,98089.19
2022-07-31T20:49:04.064Z,98081.09
2022-07-31T20:54:05.952Z,98082.75
2022-07-31T20:59:07.774Z,98087.53
2022-07-31T21:04:10.011Z,98073.97
2022-07-31T21:09:11.829Z,98077.69
2022-07-31T21:14:13.655Z,98074.97
2022-07-31T21:19:15.496Z,98068.53
2022-07-31T21:24:17.810Z,98065.28
2022-07-31T21:29:19.938Z,98067.78
2022-07-31T21:34:21.919Z,98061.50
2022-07-31T21:39:25.883Z,98064.41
2022-07-31T21:44:27.882Z,98059.00
2022-07-31T21:49:34.731Z,98063.66
2022-07-31T21:54:36.628Z,98079.84
2022-07-31T21:59:38.439Z,98080.88
2022-07-31T22:05:00.219Z,98079.03
2022-07-31T22:10:03.444Z,98077.91
2022-07-31T22:15:07.256Z,98085.25
2022-07-31T22:20:10.104Z,98082.00
2022-07-31T22:25:13.332Z,98079.78
2022-07-31T22:30:15.736Z,98079.00
2022-07-31T22:35:17.875Z,98077.19
2022-07-31T22:40:21.921Z,98074.75
2022-07-31T22:45:23.924Z,98083.34
2022-07-31T22:50:26.044Z,98091.75
2022-07-31T22:55:27.917Z,98076.78
2022-07-31T23:00:29.762Z,98087.34
2022-07-31T23:06:03.049Z,98090.44
2022-07-31T23:10:53.545Z,98076.59
2022-07-31T23:15:55.343Z,98063.72
2022-07-31T23:20:57.164Z,98071.97
2022-07-31T23:25:58.982Z,98066.44
2022-07-31T23:31:00.804Z,98072.63
2022-07-31T23:36:02.648Z,98067.06
2022-07-31T23:41:04.636Z,98069.91
2022-07-31T23:46:06.764Z,98066.72
2022-07-31T23:51:08.558Z,98062.97
2022-07-31T23:56:14.334Z,98067.09
